createdAt,value
2022-10-08T00:01:55.162Z,17.07
2022-10-08T00:04:29.602Z,17.73
2022-10-08T00:07:04.327Z,19.07
2022-10-08T00:09:38.563Z,20.30
2022-10-08T00:12:12.421Z,20.07
2022-10-08T00:14:47.192Z,20.50
2022-10-08T00:17:23.455Z,19.53
2022-10-08T00:19:58.713Z,20.63
2022-10-08T00:22:32.612Z,21.43
2022-10-08T00:25:05.869Z,22.00
2022-10-08T00:27:40.081Z,21.43
2022-10-08T00:30:14.730Z,22.20
2022-10-08T00:32:50.631Z,21.20
2022-10-08T00:35:25.013Z,21.97
2022-10-08T00:37:58.501Z,16.97
2022-10-08T00:40:32.558Z,18.50
2022-10-08T00:43:07.209Z,19.50
2022-10-08T00:45:43.736Z,19.10
2022-10-08T00:48:27.456Z,18.47
2022-10-08T00:51:01.871Z,16.60
2022-10-08T00:53:35.471Z,14.90
2022-10-08T00:56:10.053Z,15.57
2022-10-08T00:58:46.158Z,15.07
2022-10-08T01:01:21.127Z,14.93
2022-10-08T01:03:56.572Z,12.63
2022-10-08T01:06:34.319Z,14.80
2022-10-08T01:09:17.962Z,12.43
2022-10-08T01:11:58.008Z,13.63
2022-10-08T01:14:43.126Z,14.10
2022-10-08T01:17:25.362Z,13.30
2022-10-08T01:20:26.076Z,11.43
2022-10-08T01:23:20.032Z,12.70
2022-10-08T01:26:01.308Z,11.90
2022-10-08T01:28:40.983Z,12.90
2022-10-08T01:31:20.618Z,13.00
2022-10-08T01:33:59.501Z,13.27
2022-10-08T01:36:38.554Z,13.43
2022-10-08T01:39:17.430Z,13.30
2022-10-08T01:41:57.772Z,14.53
2022-10-08T01:44:40.967Z,15.43
2022-10-08T01:47:18.358Z,16.17
2022-10-08T01:49:59.351Z,19.37
2022-10-08T01:52:36.004Z,20.60
2022-10-08T01:55:16.036Z,20.50
2022-10-08T01:57:52.027Z,19.57
2022-10-08T02:00:28.742Z,19.33
2022-10-08T02:03:03.613Z,19.80
2022-10-08T02:05:41.792Z,19.53
2022-10-08T02:08:16.167Z,17.83
2022-10-08T02:10:53.434Z,18.30
2022-10-08T02:13:28.004Z,18.20
2022-10-08T02:16:09.872Z,15.70
2022-10-08T02:18:50.108Z,17.20
2022-10-08T02:21:27.990Z,17.40
2022-10-08T02:24:12.355Z,19.37
2022-10-08T02:26:52.681Z,20.30
2022-10-08T02:29:34.585Z,20.70
2022-10-08T02:32:17.187Z,22.40
2022-10-08T02:34:58.974Z,21.83
2022-10-08T02:37:39.376Z,23.97
2022-10-08T02:40:16.272Z,22.63
2022-10-08T02:42:56.682Z,26.13
2022-10-08T02:45:34.562Z,24.20
2022-10-08T02:48:16.544Z,27.87
2022-10-08T02:50:54.795Z,32.10
2022-10-08T02:53:30.299Z,35.40
2022-10-08T02:56:14.210Z,38.00
2022-10-08T02:58:52.479Z,36.73
2022-10-08T03:01:36.116Z,37.77
2022-10-08T03:04:18.832Z,40.47
2022-10-08T03:06:54.924Z,40.67
2022-10-08T03:09:42.557Z,40.23
2022-10-08T03:12:17.251Z,38.97
2022-10-08T03:14:54.423Z,39.63
2022-10-08T03:17:32.992Z,39.27
2022-10-08T03:20:10.526Z,40.00
2022-10-08T03:22:45.327Z,41.77
2022-10-08T03:25:19.907Z,40.97
2022-10-08T03:27:57.031Z,42.70
2022-10-08T03:30:32.123Z,45.07
2022-10-08T03:33:07.252Z,45.10
2022-10-08T03:35:50.713Z,42.40
2022-10-08T03:38:25.775Z,42.97
2022-10-08T03:41:01.604Z,43.23
2022-10-08T03:43:38.298Z,44.00
2022-10-08T03:46:14.772Z,45.70
2022-10-08T03:48:52.777Z,45.87
2022-10-08T03:51:29.822Z,43.03
2022-10-08T03:54:05.206Z,43.43
2022-10-08T03:56:39.821Z,41.73
2022-10-08T03:59:15.007Z,39.10
2022-10-08T04:01:50.271Z,38.43
2022-10-08T04:04:25.932Z,39.17
2022-10-08T04:07:05.327Z,40.40
2022-10-08T04:09:40.599Z,40.70
2022-10-08T04:12:15.264Z,38.90
2022-10-08T04:14:50.945Z,37.73
2022-10-08T04:17:26.537Z,37.80
2022-10-08T04:20:01.795Z,34.10
2022-10-08T04:22:39.267Z,33.33
2022-10-08T04:25:15.020Z,35.80
2022-10-08T04:27:52.745Z,24.37
2022-10-08T04:30:28.274Z,25.63
2022-10-08T04:33:04.018Z,25.50
2022-10-08T04:35:41.998Z,26.20
2022-10-08T04:38:22.109Z,26.20
2022-10-08T04:41:08.264Z,26.40
2022-10-08T04:43:44.684Z,29.03
2022-10-08T04:46:25.610Z,27.77
2022-10-08T04:49:01.592Z,27.20
2022-10-08T04:51:36.709Z,26.70
2022-10-08T04:54:14.559Z,28.53
2022-10-08T04:56:49.806Z,26.23
2022-10-08T04:59:26.035Z,24.13
2022-10-08T05:02:01.353Z,24.27
2022-10-08T05:04:39.438Z,24.67
2022-10-08T05:07:15.826Z,25.10
2022-10-08T05:09:52.786Z,25.93
2022-10-08T05:12:29.442Z,26.43
2022-10-08T05:15:06.214Z,24.13
2022-10-08T05:17:42.800Z,24.87
2022-10-08T05:20:17.758Z,26.13
2022-10-08T05:22:52.079Z,25.67
2022-10-08T05:25:29.402Z,26.53
2022-10-08T05:28:05.241Z,28.73
2022-10-08T05:30:41.396Z,29.43
2022-10-08T05:33:16.349Z,30.20
2022-10-08T05:35:51.851Z,29.17
2022-10-08T05:38:34.017Z,30.17
2022-10-08T05:41:23.806Z,23.63
2022-10-08T05:44:00.594Z,27.13
2022-10-08T05:46:36.965Z,26.63
2022-10-08T05:49:26.822Z,27.50
2022-10-08T05:52:04.008Z,28.00
2022-10-08T05:54:43.257Z,27.13
2022-10-08T05:57:24.069Z,29.60
2022-10-08T05:59:59.608Z,29.47
2022-10-08T06:02:34.987Z,29.00
2022-10-08T06:05:13.136Z,29.77
2022-10-08T06:07:48.916Z,29.97
2022-10-08T06:10:28.740Z,30.10
2022-10-08T06:13:06.464Z,30.67
2022-10-08T06:15:41.796Z,30.30
2022-10-08T06:18:17.343Z,30.20
2022-10-08T06:20:52.271Z,28.13
2022-10-08T06:23:27.818Z,29.40
2022-10-08T06:26:06.669Z,28.27
2022-10-08T06:28:45.295Z,29.30
2022-10-08T06:31:21.184Z,29.03
2022-10-08T06:34:01.566Z,25.23
2022-10-08T06:36:36.758Z,26.87
2022-10-08T06:39:14.737Z,27.03
2022-10-08T06:41:50.238Z,26.77
2022-10-08T06:44:28.283Z,24.90
2022-10-08T06:47:05.724Z,26.27
2022-10-08T06:49:42.448Z,25.97
2022-10-08T06:52:18.296Z,23.27
2022-10-08T06:54:57.684Z,24.90
2022-10-08T06:57:33.014Z,22.13
2022-10-08T07:00:10.284Z,24.23
2022-10-08T07:02:46.784Z,23.87
2022-10-08T07:05:22.033Z,23.53
2022-10-08T07:08:01.592Z,21.93
2022-10-08T07:10:37.846Z,22.80
2022-10-08T07:13:17.175Z,23.23
2022-10-08T07:15:54.424Z,23.20
2022-10-08T07:18:30.720Z,22.87
2022-10-08T07:21:06.714Z,21.73
2022-10-08T07:23:43.792Z,22.43
2022-10-08T07:26:20.749Z,21.60
2022-10-08T07:29:00.377Z,23.57
2022-10-08T07:31:38.332Z,23.00
2022-10-08T07:34:15.615Z,20.90
2022-10-08T07:36:52.388Z,20.37
2022-10-08T07:39:27.937Z,20.33
2022-10-08T07:42:05.239Z,20.53
2022-10-08T07:44:42.665Z,20.80
2022-10-08T07:47:20.595Z,20.37
2022-10-08T07:49:56.119Z,21.63
2022-10-08T07:52:34.694Z,19.53
2022-10-08T07:55:10.888Z,18.40
2022-10-08T07:57:46.810Z,17.43
2022-10-08T08:00:26.009Z,17.17
2022-10-08T08:03:06.613Z,18.50
2022-10-08T08:05:41.959Z,16.63
2022-10-08T08:08:20.830Z,16.80
2022-10-08T08:11:00.878Z,16.83
2022-10-08T08:13:41.147Z,17.33
2022-10-08T08:16:20.089Z,17.93
2022-10-08T08:19:01.449Z,17.23
2022-10-08T08:21:38.525Z,16.13
2022-10-08T08:24:16.633Z,16.27
2022-10-08T08:26:53.282Z,16.77
2022-10-08T08:29:32.806Z,17.10
2022-10-08T08:32:08.292Z,16.40
2022-10-08T08:34:45.465Z,16.73
2022-10-08T08:37:22.191Z,15.10
2022-10-08T08:39:57.829Z,16.73
2022-10-08T08:42:51.468Z,16.20
2022-10-08T08:45:46.577Z,16.27
2022-10-08T08:48:26.756Z,17.37
2022-10-08T08:51:05.577Z,16.40
2022-10-08T08:53:41.663Z,17.13
2022-10-08T08:56:20.805Z,17.50
2022-10-08T08:59:03.210Z,17.03
2022-10-08T09:01:41.362Z,16.37
2022-10-08T09:04:27.080Z,16.10
2022-10-08T09:07:05.775Z,17.23
2022-10-08T09:09:44.322Z,17.03
2022-10-08T09:12:24.075Z,17.93
2022-10-08T09:15:00.924Z,15.80
2022-10-08T09:17:37.881Z,15.50
2022-10-08T09:20:18.499Z,15.23
2022-10-08T09:22:57.265Z,15.07
2022-10-08T09:25:38.677Z,15.40
2022-10-08T09:28:14.333Z,15.97
2022-10-08T09:31:00.163Z,15.10
2022-10-08T09:33:40.726Z,15.00
2022-10-08T09:36:16.124Z,15.27
2022-10-08T09:39:02.440Z,14.47
2022-10-08T09:41:40.559Z,15.33
2022-10-08T09:44:22.278Z,16.00
2022-10-08T09:47:11.309Z,16.33
2022-10-08T09:49:46.714Z,16.13
2022-10-08T09:52:27.339Z,16.13
2022-10-08T09:55:06.566Z,15.43
2022-10-08T09:57:48.355Z,15.30
2022-10-08T10:00:31.832Z,15.27
2022-10-08T10:03:10.467Z,15.60
2022-10-08T10:05:46.674Z,14.17
2022-10-08T10:08:56.463Z,14.50
2022-10-08T10:11:44.382Z,14.53
2022-10-08T10:14:29.518Z,13.23
2022-10-08T10:17:09.848Z,13.40
2022-10-08T10:19:51.876Z,13.63
2022-10-08T10:22:30.631Z,12.43
2022-10-08T10:25:10.694Z,12.20
2022-10-08T10:27:54.385Z,12.53
2022-10-08T10:30:30.774Z,11.37
2022-10-08T10:33:13.878Z,12.27
2022-10-08T10:35:54.226Z,12.13
2022-10-08T10:38:31.509Z,12.60
2022-10-08T10:41:15.800Z,13.30
2022-10-08T10:43:55.371Z,13.60
2022-10-08T10:46:36.452Z,14.13
2022-10-08T10:49:19.011Z,14.70
2022-10-08T10:52:05.214Z,14.27
2022-10-08T10:55:07.798Z,13.83
2022-10-08T10:57:55.910Z,14.80
2022-10-08T11:00:39.166Z,14.70
2022-10-08T11:03:19.322Z,14.30
2022-10-08T11:06:00.320Z,14.47
2022-10-08T11:08:44.747Z,14.93
2022-10-08T11:11:33.053Z,14.77
2022-10-08T11:14:27.734Z,14.40
2022-10-08T11:17:16.760Z,15.27
2022-10-08T11:20:01.968Z,15.10
2022-10-08T11:22:43.403Z,15.30
2022-10-08T11:25:29.476Z,15.03
2022-10-08T11:28:24.650Z,14.90
2022-10-08T11:31:10.249Z,14.63
2022-10-08T11:33:51.360Z,14.47
2022-10-08T11:36:41.658Z,15.60
2022-10-08T11:39:24.848Z,14.77
2022-10-08T11:42:07.957Z,15.70
2022-10-08T11:44:43.822Z,14.87
2022-10-08T11:47:55.906Z,14.93
2022-10-08T11:50:39.163Z,14.17
2022-10-08T11:53:28.109Z,13.97
2022-10-08T11:56:05.379Z,14.50
2022-10-08T11:58:40.899Z,14.10
2022-10-08T12:01:24.400Z,15.80
2022-10-08T12:04:08.956Z,15.23
2022-10-08T12:06:53.630Z,13.73
2022-10-08T12:09:31.745Z,14.50
2022-10-08T12:12:21.861Z,14.10
2022-10-08T12:15:00.907Z,14.00
2022-10-08T12:18:00.682Z,14.47
2022-10-08T12:20:39.464Z,13.70
2022-10-08T12:23:39.624Z,13.17
2022-10-08T12:26:18.909Z,14.17
2022-10-08T12:28:55.876Z,15.30
2022-10-08T12:31:37.192Z,14.97
2022-10-08T12:34:24.607Z,14.60
2022-10-08T12:37:10.351Z,14.50
2022-10-08T12:39:55.229Z,17.80
2022-10-08T12:42:40.633Z,14.03
2022-10-08T12:45:29.035Z,14.03
2022-10-08T12:48:13.429Z,14.93
2022-10-08T12:51:00.977Z,14.23
2022-10-08T12:53:39.483Z,14.97
2022-10-08T12:56:23.859Z,14.23
2022-10-08T12:59:02.841Z,15.33
2022-10-08T13:01:50.657Z,14.23
2022-10-08T13:04:31.421Z,14.90
2022-10-08T13:07:29.795Z,14.40
2022-10-08T13:10:21.428Z,13.60
2022-10-08T13:13:09.228Z,14.10
2022-10-08T13:15:46.658Z,13.97
2022-10-08T13:18:31.379Z,13.80
2022-10-08T13:21:09.692Z,13.87
2022-10-08T13:23:54.651Z,15.57
2022-10-08T13:26:51.142Z,14.60
2022-10-08T13:29:36.879Z,14.93
2022-10-08T13:32:44.279Z,15.07
2022-10-08T13:35:28.255Z,15.90
2022-10-08T13:38:16.010Z,15.70
2022-10-08T13:40:59.979Z,15.63
2022-10-08T13:43:36.806Z,17.60
2022-10-08T13:46:17.371Z,18.03
2022-10-08T13:48:57.454Z,17.83
2022-10-08T13:51:36.015Z,20.23
2022-10-08T13:54:23.992Z,22.10
2022-10-08T13:57:07.476Z,20.40
2022-10-08T13:59:49.246Z,20.00
2022-10-08T14:02:30.605Z,20.33
2022-10-08T14:05:13.086Z,22.03
2022-10-08T14:07:50.454Z,22.87
2022-10-08T14:10:33.062Z,21.77
2022-10-08T14:13:15.566Z,22.33
2022-10-08T14:15:58.898Z,22.33
2022-10-08T14:18:44.173Z,22.83
2022-10-08T14:21:23.505Z,23.03
2022-10-08T14:24:03.374Z,23.73
2022-10-08T14:26:43.623Z,25.57
2022-10-08T14:29:26.125Z,25.80
2022-10-08T14:32:14.831Z,31.03
2022-10-08T14:34:56.869Z,28.53
2022-10-08T14:37:37.936Z,26.30
2022-10-08T14:40:21.322Z,24.30
2022-10-08T14:43:00.052Z,26.57
2022-10-08T14:45:35.823Z,25.50
2022-10-08T14:48:11.686Z,27.57
2022-10-08T14:50:51.022Z,27.43
2022-10-08T14:53:30.130Z,28.53
2022-10-08T14:56:12.591Z,29.40
2022-10-08T14:58:49.608Z,32.43
2022-10-08T15:01:38.114Z,36.40
2022-10-08T15:04:17.095Z,34.87
2022-10-08T15:07:00.739Z,37.47
2022-10-08T15:09:36.106Z,39.93
2022-10-08T15:12:19.530Z,40.73
2022-10-08T15:14:59.358Z,42.20
2022-10-08T15:17:41.739Z,42.80
2022-10-08T15:20:18.862Z,41.17
2022-10-08T15:22:58.183Z,41.03
2022-10-08T15:25:37.605Z,40.77
2022-10-08T15:28:15.801Z,42.13
2022-10-08T15:30:53.861Z,42.00
2022-10-08T15:33:35.377Z,41.90
2022-10-08T15:36:22.597Z,41.83
2022-10-08T15:39:06.727Z,41.43
2022-10-08T15:41:44.569Z,40.43
2022-10-08T15:44:33.652Z,41.07
2022-10-08T15:47:17.851Z,38.70
2022-10-08T15:49:54.059Z,40.20
2022-10-08T15:52:29.914Z,39.23
2022-10-08T15:55:07.982Z,40.73
2022-10-08T15:57:45.122Z,41.00
2022-10-08T16:00:24.485Z,41.83
2022-10-08T16:03:02.792Z,41.43
2022-10-08T16:05:49.376Z,41.77
2022-10-08T16:08:25.993Z,42.23
2022-10-08T16:11:17.587Z,43.97
2022-10-08T16:13:56.541Z,41.77
2022-10-08T16:16:31.883Z,41.03
2022-10-08T16:19:08.742Z,42.20
2022-10-08T16:21:47.716Z,42.43
2022-10-08T16:24:23.501Z,43.93
2022-10-08T16:27:04.078Z,43.77
2022-10-08T16:29:43.524Z,43.43
2022-10-08T16:32:27.868Z,44.60
2022-10-08T16:35:05.216Z,46.47
2022-10-08T16:37:42.601Z,47.43
2022-10-08T16:40:21.403Z,45.93
2022-10-08T16:42:59.357Z,46.33
2022-10-08T16:45:35.102Z,47.00
2022-10-08T16:48:12.653Z,47.17
2022-10-08T16:50:51.499Z,47.97
2022-10-08T16:53:26.782Z,47.57
2022-10-08T16:56:07.775Z,47.67
2022-10-08T16:58:44.525Z,46.97
2022-10-08T17:01:19.513Z,46.87
2022-10-08T17:03:58.012Z,46.60
2022-10-08T17:06:34.097Z,45.60
2022-10-08T17:09:09.820Z,45.27
2022-10-08T17:11:44.679Z,44.53
2022-10-08T17:14:21.571Z,43.83
2022-10-08T17:16:57.149Z,44.83
2022-10-08T17:19:32.720Z,43.43
2022-10-08T17:22:08.613Z,43.23
2022-10-08T17:24:44.529Z,44.10
2022-10-08T17:27:19.628Z,41.80
2022-10-08T17:29:56.048Z,42.97
2022-10-08T17:32:31.473Z,43.33
2022-10-08T17:35:07.887Z,42.77
2022-10-08T17:37:43.056Z,43.00
2022-10-08T17:40:21.497Z,42.53
2022-10-08T17:42:56.837Z,42.30
2022-10-08T17:45:33.467Z,41.03
2022-10-08T17:48:08.120Z,41.40
2022-10-08T17:50:42.794Z,40.80
2022-10-08T17:53:17.324Z,41.43
2022-10-08T17:56:02.148Z,41.87
2022-10-08T17:58:37.152Z,39.13
2022-10-08T18:01:15.158Z,38.50
2022-10-08T18:03:54.290Z,39.33
2022-10-08T18:06:32.444Z,40.50
2022-10-08T18:09:08.165Z,38.93
2022-10-08T18:11:43.646Z,38.37
2022-10-08T18:14:18.710Z,37.70
2022-10-08T18:16:55.573Z,38.70
2022-10-08T18:19:29.312Z,38.53
2022-10-08T18:22:03.903Z,37.13
2022-10-08T18:24:38.599Z,36.63
2022-10-08T18:27:13.313Z,37.13
2022-10-08T18:29:47.630Z,36.40
2022-10-08T18:32:24.195Z,36.70
2022-10-08T18:34:57.966Z,36.27
2022-10-08T18:37:31.809Z,35.07
2022-10-08T18:40:06.188Z,35.33
2022-10-08T18:42:41.035Z,35.17
2022-10-08T18:45:15.624Z,35.10
2022-10-08T18:47:51.500Z,34.27
2022-10-08T18:50:25.989Z,33.80
2022-10-08T18:53:00.465Z,33.00
2022-10-08T18:55:34.007Z,32.60
2022-10-08T18:58:08.493Z,31.53
2022-10-08T19:00:44.811Z,32.50
2022-10-08T19:03:21.250Z,32.40
2022-10-08T19:05:57.225Z,32.50
2022-10-08T19:08:31.992Z,34.03
2022-10-08T19:11:17.434Z,32.20
2022-10-08T19:13:52.415Z,32.00
2022-10-08T19:16:26.248Z,31.93
2022-10-08T19:19:03.699Z,31.83
2022-10-08T19:21:39.919Z,29.57
2022-10-08T19:24:18.083Z,27.93
2022-10-08T19:26:53.495Z,27.47
2022-10-08T19:29:34.951Z,27.40
2022-10-08T19:32:08.901Z,29.23
2022-10-08T19:34:45.359Z,28.43
2022-10-08T19:37:19.807Z,28.67
2022-10-08T19:39:54.305Z,28.43
2022-10-08T19:42:32.082Z,27.90
2022-10-08T19:45:06.482Z,27.90
2022-10-08T19:47:41.320Z,27.07
2022-10-08T19:50:17.191Z,27.67
2022-10-08T19:52:52.052Z,26.47
2022-10-08T19:55:26.506Z,27.43
2022-10-08T19:58:00.922Z,27.20
2022-10-08T20:00:41.320Z,27.13
2022-10-08T20:03:15.708Z,26.43
2022-10-08T20:05:52.414Z,26.73
2022-10-08T20:08:26.620Z,25.80
2022-10-08T20:11:02.071Z,26.77
2022-10-08T20:13:36.374Z,26.43
2022-10-08T20:16:15.065Z,26.23
2022-10-08T20:18:53.694Z,24.50
2022-10-08T20:21:29.673Z,26.30
2022-10-08T20:24:03.978Z,26.87
2022-10-08T20:26:39.012Z,25.50
2022-10-08T20:29:15.541Z,25.97
2022-10-08T20:31:51.319Z,25.23
2022-10-08T20:34:28.489Z,25.63
2022-10-08T20:37:04.567Z,24.93
2022-10-08T20:39:38.922Z,24.90
2022-10-08T20:42:13.366Z,25.40
2022-10-08T20:44:48.540Z,24.67
2022-10-08T20:47:22.633Z,26.20
2022-10-08T20:49:57.062Z,26.03
2022-10-08T20:52:33.117Z,25.83
2022-10-08T20:55:07.697Z,24.83
2022-10-08T20:57:42.331Z,24.47
2022-10-08T21:00:16.756Z,24.77
2022-10-08T21:02:51.221Z,26.00
2022-10-08T21:05:28.227Z,26.10
2022-10-08T21:08:08.710Z,25.83
2022-10-08T21:10:42.591Z,27.00
2022-10-08T21:13:16.540Z,21.83
2022-10-08T21:15:50.509Z,15.93
2022-10-08T21:18:24.495Z,4.40
2022-10-08T21:20:59.273Z,4.70
2022-10-08T21:23:35.849Z,5.00
2022-10-08T21:26:14.227Z,4.80
2022-10-08T21:28:53.203Z,4.70
2022-10-08T21:31:28.981Z,5.00
2022-10-08T21:34:03.645Z,5.67
2022-10-08T21:36:39.693Z,4.00
2022-10-08T21:39:19.902Z,4.27
2022-10-08T21:41:56.173Z,4.50
2022-10-08T21:44:30.535Z,4.47
2022-10-08T21:47:04.435Z,5.30
2022-10-08T21:49:38.369Z,5.23
2022-10-08T21:52:13.542Z,4.47
2022-10-08T21:54:49.435Z,4.17
2022-10-08T21:57:22.670Z,4.43
2022-10-08T21:59:56.759Z,3.97
2022-10-08T22:02:31.000Z,4.90
2022-10-08T22:05:08.499Z,4.53
2022-10-08T22:07:42.156Z,4.20
2022-10-08T22:10:18.398Z,4.10
2022-10-08T22:12:52.217Z,4.47
2022-10-08T22:15:26.828Z,4.63
2022-10-08T22:18:00.675Z,4.83
2022-10-08T22:20:34.689Z,4.43
2022-10-08T22:23:08.617Z,4.70
2022-10-08T22:25:44.913Z,5.00
2022-10-08T22:28:18.784Z,5.10
2022-10-08T22:30:52.769Z,4.37
2022-10-08T22:33:26.673Z,4.87
2022-10-08T22:36:05.580Z,4.70
2022-10-08T22:38:40.724Z,5.00
2022-10-08T22:41:18.682Z,4.90
2022-10-08T22:43:52.888Z,4.97
2022-10-08T22:46:29.200Z,5.37
2022-10-08T22:49:04.788Z,5.27
2022-10-08T22:51:38.742Z,5.43
2022-10-08T22:54:13.301Z,4.87
2022-10-08T22:56:49.620Z,5.50
2022-10-08T22:59:23.305Z,5.40
2022-10-08T23:01:57.748Z,5.80
2022-10-08T23:04:31.784Z,6.53
2022-10-08T23:07:05.713Z,6.43
2022-10-08T23:09:40.712Z,6.20
2022-10-08T23:12:17.178Z,6.60
2022-10-08T23:14:51.372Z,5.93
2022-10-08T23:17:25.633Z,7.00
2022-10-08T23:19:59.568Z,7.20
2022-10-08T23:22:35.057Z,9.43
2022-10-08T23:25:13.574Z,7.63
2022-10-08T23:27:49.585Z,7.13
2022-10-08T23:30:42.138Z,7.53
2022-10-08T23:33:18.159Z,7.80
2022-10-08T23:35:59.120Z,8.23
2022-10-08T23:38:33.862Z,8.57
2022-10-08T23:41:08.528Z,7.90
2022-10-08T23:43:45.847Z,8.73
2022-10-08T23:46:21.862Z,7.90
2022-10-08T23:48:57.251Z,8.30
2022-10-08T23:51:34.962Z,8.37
2022-10-08T23:54:09.053Z,8.70
2022-10-08T23:56:43.397Z,9.07
2022-10-08T23:59:18.815Z,9.50
